Ouray, Utah
Current Conditions -  °F | °C
As of 8:53 PM on Wednesday 28 Jan 2015 (Local Time) from KVEL Reporting Station
Overcast Overcast  
Wind Chill: 36°   Ceiling: 7500
Heat Index: 39°   Visibility: 10mi
Dew Point: 28°   Wind: 5mph
Humidity: 65%   Direction: 280°W
Pressure: 30.3"   Gusts: NA
Location:  40.2958°N, 109.84°W
Report Text: KVEL 290353Z AUTO 28004KT 10SM OVC075 04/M02 A3030 RMK AO2 SLP271 T00391022
Loading
Personal Weather Stations






























Interactive Weather Map New forecast layout! Learn more

10-Day Weather Forecast

Advertisements
Track Severe Weather on mobile